createdAt,value
2018-03-16T00:02:04.816Z,84.90
2018-03-16T00:04:33.130Z,85.90
2018-03-16T00:07:00.903Z,86.50
2018-03-16T00:09:28.362Z,87.10
2018-03-16T00:11:56.121Z,87.70
2018-03-16T00:14:23.582Z,88.20
2018-03-16T00:16:51.052Z,87.80
2018-03-16T00:19:18.505Z,88.40
2018-03-16T00:21:45.975Z,88.80
2018-03-16T00:24:13.447Z,89.40
2018-03-16T00:26:40.908Z,89.10
2018-03-16T00:29:08.381Z,89.40
2018-03-16T00:31:35.852Z,90.00
2018-03-16T00:34:04.080Z,90.30
2018-03-16T00:36:31.552Z,90.30
2018-03-16T00:38:59.033Z,90.10
2018-03-16T00:41:27.465Z,90.60
2018-03-16T00:43:54.971Z,90.60
2018-03-16T00:46:23.202Z,90.90
2018-03-16T00:48:50.665Z,90.90
2018-03-16T00:51:18.407Z,90.90
2018-03-16T00:53:45.866Z,90.90
2018-03-16T00:56:13.329Z,91.10
2018-03-16T00:58:40.794Z,91.20
2018-03-16T01:01:08.268Z,91.50
2018-03-16T01:03:35.999Z,91.40
2018-03-16T01:06:03.463Z,91.50
2018-03-16T01:08:30.938Z,91.60
2018-03-16T01:10:58.415Z,91.80
2018-03-16T01:13:25.917Z,91.70
2018-03-16T01:15:53.621Z,91.90
2018-03-16T01:18:21.083Z,91.70
2018-03-16T01:20:49.533Z,92.00
2018-03-16T01:23:16.993Z,92.10
2018-03-16T01:25:44.450Z,92.00
2018-03-16T01:28:11.916Z,91.90
2018-03-16T01:30:39.381Z,92.00
2018-03-16T01:33:07.123Z,92.00
2018-03-16T01:35:34.888Z,91.90
2018-03-16T01:38:02.351Z,92.00
2018-03-16T01:40:29.806Z,92.00
2018-03-16T01:42:57.264Z,91.80
2018-03-16T01:45:24.720Z,91.90
2018-03-16T01:47:52.182Z,91.70
2018-03-16T01:50:19.643Z,91.90
2018-03-16T01:52:59.151Z,91.60
2018-03-16T01:55:26.598Z,91.70
2018-03-16T01:57:54.822Z,91.60
2018-03-16T02:00:22.286Z,91.60
2018-03-16T02:02:49.745Z,91.50
2018-03-16T02:05:17.198Z,91.70
2018-03-16T02:07:44.655Z,91.80
2018-03-16T02:10:12.119Z,91.50
2018-03-16T02:12:39.601Z,91.70
2018-03-16T02:15:07.055Z,91.80
2018-03-16T02:17:34.526Z,91.70
2018-03-16T02:20:02.747Z,91.80
2018-03-16T02:22:30.986Z,91.70
2018-03-16T02:24:59.205Z,91.80
2018-03-16T02:27:26.667Z,91.70
2018-03-16T02:29:54.131Z,91.80
2018-03-16T02:32:21.578Z,91.60
2018-03-16T02:34:49.051Z,91.60
2018-03-16T02:37:16.723Z,91.60
2018-03-16T02:39:44.181Z,91.80
2018-03-16T02:42:11.636Z,91.70
2018-03-16T02:44:39.089Z,91.70
2018-03-16T02:47:06.550Z,91.90
2018-03-16T02:49:33.994Z,91.90
2018-03-16T02:52:01.446Z,92.00
2018-03-16T02:54:28.907Z,92.00
2018-03-16T02:56:56.373Z,92.10
2018-03-16T02:59:23.829Z,92.30
2018-03-16T03:01:51.276Z,92.10
2018-03-16T03:04:18.735Z,92.10
2018-03-16T03:06:46.268Z,92.00
2018-03-16T03:09:13.652Z,92.00
2018-03-16T03:11:41.123Z,92.20
2018-03-16T03:14:08.573Z,92.10
2018-03-16T03:16:36.035Z,92.10
2018-03-16T03:19:03.486Z,92.10
2018-03-16T03:21:30.943Z,92.10
2018-03-16T03:23:58.401Z,92.10
2018-03-16T03:26:25.850Z,92.10
2018-03-16T03:28:53.314Z,92.00
2018-03-16T03:31:20.766Z,91.90
2018-03-16T03:33:48.445Z,91.90
2018-03-16T03:36:15.898Z,92.10
2018-03-16T03:38:43.353Z,92.00
2018-03-16T03:41:10.816Z,91.80
2018-03-16T03:43:38.299Z,92.00
2018-03-16T03:46:06.522Z,92.00
2018-03-16T03:48:33.974Z,92.00
2018-03-16T03:51:01.436Z,92.10
2018-03-16T03:53:29.179Z,92.10
2018-03-16T03:55:56.632Z,92.20
2018-03-16T03:58:24.110Z,92.40
2018-03-16T04:00:51.562Z,92.30
2018-03-16T04:03:19.019Z,92.50
2018-03-16T04:05:46.475Z,92.30
2018-03-16T04:08:13.949Z,92.30
2018-03-16T04:10:41.625Z,92.20
2018-03-16T04:13:09.080Z,92.10
2018-03-16T04:15:36.551Z,92.30
2018-03-16T04:18:03.993Z,92.00
2018-03-16T04:20:31.458Z,92.20
2018-03-16T04:22:58.968Z,92.10
2018-03-16T04:25:26.431Z,92.20
2018-03-16T04:27:53.893Z,92.10
2018-03-16T04:30:21.352Z,92.20
2018-03-16T04:32:49.026Z,92.10
2018-03-16T04:35:16.481Z,92.00
2018-03-16T04:37:43.945Z,92.20
2018-03-16T04:40:11.406Z,92.20
2018-03-16T04:42:38.856Z,92.10
2018-03-16T04:45:06.313Z,92.00
2018-03-16T04:47:33.989Z,92.00
2018-03-16T04:50:01.449Z,92.10
2018-03-16T04:52:28.907Z,91.90
2018-03-16T04:54:56.373Z,92.20
2018-03-16T04:57:23.843Z,92.20
2018-03-16T04:59:52.064Z,91.90
2018-03-16T05:02:19.526Z,91.90
2018-03-16T05:04:46.984Z,91.90
2018-03-16T05:07:14.438Z,91.90
2018-03-16T05:09:41.908Z,92.20
2018-03-16T05:12:09.366Z,92.00
2018-03-16T05:14:36.823Z,92.10
2018-03-16T05:17:04.301Z,91.90
2018-03-16T05:19:31.762Z,91.80
2018-03-16T05:21:59.478Z,91.90
2018-03-16T05:24:26.934Z,92.00
2018-03-16T05:26:54.402Z,91.80
2018-03-16T05:29:21.856Z,91.90
2018-03-16T05:31:49.318Z,92.00
2018-03-16T05:34:16.770Z,91.90
2018-03-16T05:36:44.229Z,91.70
2018-03-16T05:39:11.686Z,91.80
2018-03-16T05:41:39.154Z,91.70
2018-03-16T05:44:06.616Z,91.90
2018-03-16T05:46:34.067Z,91.90
2018-03-16T05:49:01.527Z,91.70
2018-03-16T05:51:28.974Z,91.70
2018-03-16T05:53:56.445Z,91.40
2018-03-16T05:56:23.905Z,91.40
2018-03-16T05:58:51.363Z,91.70
2018-03-16T06:01:18.824Z,91.50
2018-03-16T06:03:46.275Z,91.40
2018-03-16T06:06:13.954Z,91.20
2018-03-16T06:08:41.411Z,90.90
2018-03-16T06:11:08.871Z,90.50
2018-03-16T06:13:36.323Z,90.70
2018-03-16T06:16:03.790Z,90.40
2018-03-16T06:18:31.467Z,90.70
2018-03-16T06:20:59.690Z,90.30
2018-03-16T06:23:27.155Z,90.30
2018-03-16T06:25:54.602Z,90.00
2018-03-16T06:28:22.093Z,90.00
2018-03-16T06:30:49.815Z,89.60
2018-03-16T06:33:17.578Z,89.30
2018-03-16T06:35:45.035Z,89.10
2018-03-16T06:38:12.496Z,89.40
2018-03-16T06:40:39.958Z,90.10
2018-03-16T06:43:07.410Z,89.60
2018-03-16T06:45:34.882Z,89.10
2018-03-16T06:48:02.329Z,89.30
2018-03-16T06:50:30.011Z,90.00
2018-03-16T06:52:57.460Z,89.30
2018-03-16T06:55:24.918Z,88.50
2018-03-16T06:57:52.958Z,88.90
2018-03-16T07:00:20.403Z,88.80
2018-03-16T07:02:48.621Z,88.80
2018-03-16T07:05:16.078Z,88.80
2018-03-16T07:07:43.534Z,88.00
2018-03-16T07:10:10.988Z,88.00
2018-03-16T07:12:38.434Z,88.20
2018-03-16T07:15:18.120Z,87.80
2018-03-16T07:17:45.566Z,87.30
2018-03-16T07:20:14.544Z,86.70
2018-03-16T07:22:42.005Z,87.30
2018-03-16T07:25:09.752Z,87.00
2018-03-16T07:27:37.506Z,87.00
2018-03-16T07:30:04.961Z,86.90
2018-03-16T07:32:32.621Z,87.20
2018-03-16T07:35:00.094Z,86.60
2018-03-16T07:37:27.549Z,86.90
2018-03-16T07:39:54.995Z,86.80
2018-03-16T07:42:22.462Z,86.80
2018-03-16T07:44:49.927Z,86.90
2018-03-16T07:47:17.390Z,86.40
2018-03-16T07:49:44.850Z,87.10
2018-03-16T07:52:12.329Z,87.10
2018-03-16T07:54:39.843Z,86.40
2018-03-16T07:57:07.854Z,85.70
2018-03-16T07:59:35.478Z,84.40
2018-03-16T08:02:03.603Z,83.80
2018-03-16T08:04:36.434Z,83.30
2018-03-16T08:07:03.890Z,82.50
2018-03-16T08:09:31.354Z,82.20
2018-03-16T08:11:58.814Z,81.60
2018-03-16T08:14:26.267Z,81.00
2018-03-16T08:16:53.925Z,81.00
2018-03-16T08:19:21.382Z,81.00
2018-03-16T08:21:48.842Z,79.40
2018-03-16T08:24:16.303Z,77.90
2018-03-16T08:26:43.765Z,78.30
2018-03-16T08:29:11.228Z,77.70
2018-03-16T08:31:39.438Z,78.60
2018-03-16T08:34:06.900Z,78.60
2018-03-16T08:36:41.991Z,78.40
2018-03-16T08:39:09.566Z,77.80
2018-03-16T08:41:37.025Z,74.90
2018-03-16T08:44:04.495Z,71.40
2018-03-16T08:46:31.982Z,71.10
2018-03-16T08:49:00.246Z,70.30
2018-03-16T08:51:28.484Z,71.10
2018-03-16T08:53:55.935Z,71.00
2018-03-16T08:56:23.419Z,72.40
2018-03-16T08:58:50.882Z,70.40
2018-03-16T09:01:18.335Z,67.90
2018-03-16T09:03:49.635Z,71.20
2018-03-16T09:06:17.399Z,69.40
2018-03-16T09:08:48.193Z,68.20
2018-03-16T09:11:16.423Z,68.60
2018-03-16T09:13:43.900Z,68.40
2018-03-16T09:16:11.630Z,67.20
2018-03-16T09:18:39.112Z,67.30
2018-03-16T09:21:14.662Z,66.70
2018-03-16T09:23:42.979Z,67.60
2018-03-16T09:26:11.240Z,67.20
2018-03-16T09:28:39.483Z,65.30
2018-03-16T09:31:06.980Z,65.30
2018-03-16T09:33:35.222Z,65.60
2018-03-16T09:36:03.333Z,65.00
2018-03-16T09:38:31.135Z,66.00
2018-03-16T09:40:58.590Z,63.90
2018-03-16T09:43:26.055Z,65.90
2018-03-16T09:45:53.528Z,67.80
2018-03-16T09:48:20.996Z,63.00
2018-03-16T09:50:48.455Z,62.00
2018-03-16T09:53:25.802Z,61.90
2018-03-16T09:55:53.270Z,63.90
2018-03-16T09:58:24.675Z,62.60
2018-03-16T10:00:52.154Z,61.90
2018-03-16T10:03:22.534Z,63.20
2018-03-16T10:05:50.007Z,62.40
2018-03-16T10:08:17.463Z,62.60
2018-03-16T10:10:44.934Z,61.90
2018-03-16T10:13:12.415Z,62.30
2018-03-16T10:15:39.870Z,62.40
2018-03-16T10:18:07.342Z,62.10
2018-03-16T10:20:34.802Z,63.80
2018-03-16T10:23:02.274Z,64.80
2018-03-16T10:25:29.722Z,63.30
2018-03-16T10:27:57.204Z,62.60
2018-03-16T10:30:26.265Z,65.60
2018-03-16T10:32:53.732Z,66.50
2018-03-16T10:35:21.186Z,62.10
2018-03-16T10:37:48.998Z,63.20
2018-03-16T10:40:16.467Z,61.60
2018-03-16T10:42:43.935Z,63.40
2018-03-16T10:45:12.441Z,63.10
2018-03-16T10:47:43.431Z,63.20
2018-03-16T10:50:10.900Z,62.90
2018-03-16T10:52:43.175Z,64.50
2018-03-16T10:55:11.407Z,62.10
2018-03-16T10:57:39.150Z,62.10
2018-03-16T11:00:06.625Z,63.20
2018-03-16T11:02:39.720Z,63.60
2018-03-16T11:08:20.072Z,63.00
2018-03-16T11:10:48.339Z,63.10
2018-03-16T11:13:16.673Z,61.40
2018-03-16T11:15:44.228Z,61.40
2018-03-16T11:18:11.747Z,63.60
2018-03-16T11:20:39.273Z,61.90
2018-03-16T11:23:06.774Z,62.40
2018-03-16T11:25:34.288Z,63.70
2018-03-16T11:28:02.634Z,66.10
2018-03-16T11:30:30.194Z,66.10
2018-03-16T11:32:57.669Z,68.20
2018-03-16T11:35:25.184Z,71.10
2018-03-16T11:37:52.698Z,68.30
2018-03-16T11:40:20.983Z,66.60
2018-03-16T11:42:48.496Z,66.60
2018-03-16T11:45:16.002Z,68.10
2018-03-16T11:47:43.547Z,67.70
2018-03-16T11:50:11.111Z,68.50
2018-03-16T11:52:39.392Z,66.90
2018-03-16T11:55:06.925Z,66.90
2018-03-16T11:57:34.436Z,66.30
2018-03-16T12:00:01.962Z,67.60
2018-03-16T12:02:30.246Z,66.80
2018-03-16T12:04:57.772Z,66.80
2018-03-16T12:07:25.286Z,65.60
2018-03-16T12:09:52.799Z,66.70
2018-03-16T12:14:54.992Z,66.90
2018-03-16T12:17:22.522Z,67.30
2018-03-16T12:19:50.043Z,69.20
2018-03-16T12:22:17.579Z,69.20
2018-03-16T12:24:45.111Z,70.00
2018-03-16T12:27:13.385Z,70.80
2018-03-16T12:29:41.654Z,70.30
2018-03-16T12:32:09.942Z,70.00
2018-03-16T12:34:38.223Z,70.80
2018-03-16T12:37:05.743Z,70.80
2018-03-16T12:39:33.326Z,68.20
2018-03-16T12:42:01.614Z,67.10
2018-03-16T12:44:29.161Z,67.00
2018-03-16T12:46:57.526Z,62.80
2018-03-16T12:49:25.885Z,62.20
2018-03-16T12:51:53.411Z,62.20
2018-03-16T12:54:20.954Z,62.70
2018-03-16T12:56:48.466Z,64.40
2018-03-16T12:59:16.763Z,62.10
2018-03-16T13:01:45.046Z,63.10
2018-03-16T13:04:12.600Z,63.00
2018-03-16T13:06:40.151Z,62.80
2018-03-16T13:09:08.419Z,62.10
2018-03-16T13:11:36.695Z,62.20
2018-03-16T13:14:04.964Z,62.60
2018-03-16T13:16:33.263Z,63.40
2018-03-16T13:19:00.767Z,63.40
2018-03-16T13:21:28.320Z,66.60
2018-03-16T13:23:55.833Z,62.60
2018-03-16T13:26:23.335Z,62.30
2018-03-16T13:28:50.849Z,62.90
2018-03-16T13:31:19.147Z,63.20
2018-03-16T13:33:46.665Z,63.50
2018-03-16T13:36:14.943Z,60.00
2018-03-16T13:38:43.224Z,59.80
2018-03-16T13:41:11.495Z,60.60
2018-03-16T13:43:39.034Z,60.70
2018-03-16T13:46:06.561Z,60.60
2018-03-16T13:48:34.064Z,61.40
2018-03-16T13:51:02.354Z,61.10
2018-03-16T13:53:29.908Z,61.20
2018-03-16T13:55:57.418Z,63.20
2018-03-16T13:58:24.927Z,62.00
2018-03-16T14:00:52.451Z,62.70
2018-03-16T14:03:20.787Z,63.70
2018-03-16T14:05:48.320Z,63.20
2018-03-16T14:08:15.866Z,63.70
2018-03-16T14:10:43.375Z,63.00
2018-03-16T14:13:10.889Z,62.80
2018-03-16T14:15:38.411Z,62.40
2018-03-16T14:18:06.719Z,60.50
2018-03-16T14:20:34.320Z,60.40
2018-03-16T14:23:01.838Z,61.50
2018-03-16T14:25:29.371Z,63.80
2018-03-16T14:27:56.945Z,63.50
2018-03-16T14:30:24.416Z,60.90
2018-03-16T14:32:51.939Z,62.50
2018-03-16T14:35:19.493Z,62.30
2018-03-16T14:37:47.017Z,62.10
2018-03-16T14:40:14.532Z,62.70
2018-03-16T14:42:42.076Z,61.60
2018-03-16T14:45:10.367Z,62.80
2018-03-16T14:47:37.875Z,62.80
2018-03-16T14:50:05.403Z,62.60
2018-03-16T14:52:32.916Z,63.00
2018-03-16T14:55:01.200Z,58.80
2018-03-16T14:57:28.761Z,58.70
2018-03-16T14:59:56.295Z,59.20
2018-03-16T15:02:23.815Z,58.60
2018-03-16T15:04:51.328Z,57.70
2018-03-16T15:07:19.619Z,56.80
2018-03-16T15:09:47.131Z,56.60
2018-03-16T15:12:15.438Z,57.30
2018-03-16T15:14:43.766Z,54.90
2018-03-16T15:17:11.283Z,54.90
2018-03-16T15:19:38.825Z,54.10
2018-03-16T15:22:07.102Z,59.80
2018-03-16T15:24:35.390Z,62.30
2018-03-16T15:27:02.921Z,62.30
2018-03-16T15:29:31.218Z,64.40
2018-03-16T15:31:58.737Z,64.40
2018-03-16T15:34:26.253Z,64.80
2018-03-16T15:36:53.776Z,66.60
2018-03-16T15:39:22.059Z,67.30
2018-03-16T15:41:50.362Z,67.50
2018-03-16T15:44:17.856Z,67.50
2018-03-16T15:46:45.563Z,67.70
2018-03-16T15:51:47.027Z,68.80
2018-03-16T15:54:14.556Z,69.40
2018-03-16T15:56:42.895Z,70.20
2018-03-16T15:59:10.496Z,70.00
2018-03-16T16:01:38.782Z,70.30
2018-03-16T16:04:07.067Z,70.30
2018-03-16T16:06:34.581Z,70.30
2018-03-16T16:09:02.113Z,69.90
2018-03-16T16:11:29.623Z,70.60
2018-03-16T16:13:57.177Z,69.70
2018-03-16T16:16:25.449Z,69.00
2018-03-16T16:18:53.741Z,69.50
2018-03-16T16:21:22.081Z,68.30
2018-03-16T16:23:49.600Z,68.30
2018-03-16T16:26:17.139Z,67.90
2018-03-16T16:28:44.782Z,68.70
2018-03-16T16:31:13.074Z,68.10
2018-03-16T16:33:40.606Z,68.00
2018-03-16T16:36:08.912Z,68.60
2018-03-16T16:38:36.445Z,68.40
2018-03-16T16:41:04.769Z,71.20
2018-03-16T16:43:32.288Z,71.10
2018-03-16T16:46:00.551Z,71.10
2018-03-16T16:48:28.848Z,70.40
2018-03-16T16:50:56.350Z,70.30
2018-03-16T16:53:23.924Z,70.50
2018-03-16T16:55:51.438Z,72.20
2018-03-16T16:58:18.951Z,72.70
2018-03-16T17:00:47.231Z,73.10
2018-03-16T17:03:15.523Z,74.00
2018-03-16T17:05:43.071Z,74.10
2018-03-16T17:08:10.664Z,74.10
2018-03-16T17:10:39.417Z,74.10
2018-03-16T17:13:07.694Z,73.60
2018-03-16T17:15:35.234Z,73.60
2018-03-16T17:18:02.750Z,74.00
2018-03-16T17:20:30.293Z,73.20
2018-03-16T17:22:57.830Z,74.20
2018-03-16T17:25:25.459Z,74.00
2018-03-16T17:27:53.040Z,74.20
2018-03-16T17:30:21.311Z,74.20
2018-03-16T17:32:49.584Z,74.70
2018-03-16T17:35:17.851Z,74.80
2018-03-16T17:37:46.139Z,75.40
2018-03-16T17:40:13.670Z,75.40
2018-03-16T17:42:41.975Z,76.20
2018-03-16T17:45:09.500Z,76.10
2018-03-16T17:47:37.002Z,76.20
2018-03-16T17:50:04.514Z,76.80
2018-03-16T17:52:32.016Z,76.80
2018-03-16T17:54:59.531Z,77.50
2018-03-16T17:57:27.066Z,77.60
2018-03-16T17:59:54.638Z,77.90
2018-03-16T18:02:22.221Z,78.30
2018-03-16T18:04:50.499Z,78.20
2018-03-16T18:07:18.784Z,78.50
2018-03-16T18:09:46.303Z,78.50
2018-03-16T18:12:13.815Z,78.40
2018-03-16T18:14:41.370Z,78.60
2018-03-16T18:17:09.685Z,79.40
2018-03-16T18:19:37.300Z,79.30
2018-03-16T18:22:04.811Z,79.20
2018-03-16T18:24:32.329Z,79.10
2018-03-16T18:26:59.915Z,79.40
2018-03-16T18:29:27.429Z,79.30
2018-03-16T18:31:54.965Z,79.20
2018-03-16T18:34:23.321Z,78.90
2018-03-16T18:36:50.860Z,78.90
2018-03-16T18:39:18.382Z,78.90
2018-03-16T18:41:45.901Z,79.60
2018-03-16T18:44:13.441Z,79.40
2018-03-16T18:46:40.965Z,79.80
2018-03-16T18:49:09.304Z,79.40
2018-03-16T18:51:37.597Z,79.40
2018-03-16T18:54:05.243Z,79.40
2018-03-16T18:56:33.610Z,79.90
2018-03-16T18:59:01.909Z,80.00
2018-03-16T19:01:29.485Z,79.90
2018-03-16T19:03:57.069Z,80.00
2018-03-16T19:06:24.579Z,80.40
2018-03-16T19:08:52.100Z,80.50
2018-03-16T19:11:19.633Z,80.50
2018-03-16T19:13:47.986Z,81.00
2018-03-16T19:16:15.494Z,80.80
2018-03-16T19:18:43.052Z,81.20
2018-03-16T19:21:10.557Z,81.60
2018-03-16T19:23:38.172Z,81.90
2018-03-16T19:26:05.758Z,82.40
2018-03-16T19:28:33.275Z,81.70
2018-03-16T19:31:00.805Z,81.60
2018-03-16T19:33:28.354Z,81.90
2018-03-16T19:35:55.877Z,82.40
2018-03-16T19:38:24.232Z,82.60
2018-03-16T19:40:51.740Z,82.60
2018-03-16T19:43:19.307Z,82.40
2018-03-16T19:45:46.884Z,82.40
2018-03-16T19:48:14.419Z,83.00
2018-03-16T19:50:41.987Z,83.40
2018-03-16T19:53:09.530Z,83.60
2018-03-16T19:55:37.195Z,83.80
2018-03-16T19:58:04.719Z,83.50
2018-03-16T20:00:33.037Z,84.10
2018-03-16T20:03:00.585Z,84.10
2018-03-16T20:05:28.147Z,84.20
2018-03-16T20:07:55.672Z,84.40
2018-03-16T20:10:23.946Z,85.00
2018-03-16T20:12:52.264Z,85.10
2018-03-16T20:15:19.790Z,85.10
2018-03-16T20:17:47.297Z,84.70
2018-03-16T20:20:14.816Z,84.40
2018-03-16T20:22:42.362Z,84.50
2018-03-16T20:25:09.837Z,84.30
2018-03-16T20:27:37.340Z,83.20
2018-03-16T20:30:04.915Z,84.50
2018-03-16T20:32:33.301Z,84.60
2018-03-16T20:35:01.582Z,85.20
2018-03-16T20:37:29.113Z,85.20
2018-03-16T20:39:57.400Z,85.70
2018-03-16T20:42:25.696Z,85.90
2018-03-16T20:44:53.248Z,85.80
2018-03-16T20:47:20.765Z,85.90
2018-03-16T20:49:48.280Z,86.10
2018-03-16T20:52:15.831Z,86.20
2018-03-16T20:54:43.357Z,86.10
2018-03-16T20:57:11.663Z,85.80
2018-03-16T20:59:39.173Z,85.80
2018-03-16T21:02:06.671Z,84.20
2018-03-16T21:04:34.190Z,85.80
2018-03-16T21:07:01.773Z,85.80
2018-03-16T21:09:30.096Z,86.50
2018-03-16T21:11:57.607Z,86.40
2018-03-16T21:14:25.148Z,86.90
2018-03-16T21:16:53.453Z,86.70
2018-03-16T21:19:20.966Z,86.60
2018-03-16T21:21:48.480Z,86.90
2018-03-16T21:24:16.026Z,87.10
2018-03-16T21:26:43.540Z,86.70
2018-03-16T21:29:11.072Z,86.70
2018-03-16T21:31:38.619Z,87.00
2018-03-16T21:34:06.230Z,86.90
2018-03-16T21:36:34.564Z,87.10
2018-03-16T21:39:02.117Z,87.10
2018-03-16T21:41:29.725Z,86.90
2018-03-16T21:43:58.003Z,87.30
2018-03-16T21:46:26.305Z,87.60
2018-03-16T21:48:53.884Z,87.70
2018-03-16T21:51:21.543Z,87.30
2018-03-16T21:53:49.082Z,87.60
2018-03-16T21:56:16.632Z,87.40
2018-03-16T21:58:44.162Z,87.40
2018-03-16T22:01:12.490Z,87.30
2018-03-16T22:03:40.016Z,87.30
2018-03-16T22:06:07.566Z,86.20
2018-03-16T22:08:35.926Z,86.90
2018-03-16T22:11:04.253Z,87.10
2018-03-16T22:13:31.876Z,87.10
2018-03-16T22:15:59.339Z,88.30
2018-03-16T22:18:26.918Z,87.60
2018-03-16T22:20:54.490Z,87.40
2018-03-16T22:23:22.046Z,87.50
2018-03-16T22:25:49.597Z,87.50
2018-03-16T22:28:17.175Z,87.60
2018-03-16T22:30:44.706Z,87.80
2018-03-16T22:33:12.327Z,87.80
2018-03-16T22:35:40.653Z,87.80
2018-03-16T22:38:08.267Z,87.80
2018-03-16T22:40:36.683Z,87.60
2018-03-16T22:43:04.235Z,87.60
2018-03-16T22:45:31.792Z,87.70
2018-03-16T22:47:59.317Z,87.70
2018-03-16T22:50:27.642Z,88.80
2018-03-16T22:52:55.260Z,87.90
2018-03-16T22:55:23.632Z,88.40
2018-03-16T22:57:51.965Z,88.70
2018-03-16T23:00:19.504Z,88.60
2018-03-16T23:02:47.059Z,88.80
2018-03-16T23:05:14.624Z,88.50
2018-03-16T23:07:42.156Z,88.40
2018-03-16T23:10:09.716Z,88.30
2018-03-16T23:12:37.249Z,88.00
2018-03-16T23:15:05.567Z,87.80
2018-03-16T23:17:33.080Z,87.80
2018-03-16T23:20:01.361Z,88.20
2018-03-16T23:22:29.647Z,88.10
2018-03-16T23:24:57.970Z,88.70
2018-03-16T23:27:25.561Z,88.60
2018-03-16T23:29:53.111Z,88.70
2018-03-16T23:32:20.636Z,88.30
2018-03-16T23:34:48.151Z,88.20
2018-03-16T23:37:15.731Z,88.10
2018-03-16T23:39:43.252Z,88.20
2018-03-16T23:42:11.562Z,88.10
2018-03-16T23:44:39.083Z,88.00
2018-03-16T23:47:07.385Z,87.90
2018-03-16T23:49:34.910Z,87.80
2018-03-16T23:52:03.223Z,87.80
2018-03-16T23:54:31.528Z,87.70
2018-03-16T23:56:59.045Z,87.70
2018-03-16T23:59:26.563Z,88.00
